Time;durP1;ratioP1;P1;durP2;ratioP2;P2;SDS_P1;SDS_P2;PMS_P1;PMS_P2;Temp;Humidity;BMP_temperature;BMP_pressure;BME280_temperature;BME280_humidity;BME280_pressure;Samples;Min_cycle;Max_cycle;Signal;HPM_P1;HPM_P2
2023/03/12 07:16:35;;;;;;;;;;;;;;;5.02;56.89;97775.22;6207167;22;20062;-60
2023/03/12 07:19:00;;;;;;;;;;;;;;;4.71;57.16;97784.63;6213639;23;20287;-60
2023/03/12 07:21:25;;;;;;;;;;;;;;;4.55;57.34;97777.72;6213051;23;19908;-60
2023/03/12 07:23:51;;;;;;;;;;;;;;;4.40;57.49;97768.91;6184059;23;19919;-60
2023/03/12 07:26:16;;;;;;;;;;;;;;;4.34;58.56;97764.88;6186591;23;19908;-60
2023/03/12 07:28:41;;;;;;;;;;;;;;;4.36;58.70;97752.66;6215258;23;19962;-60
2023/03/12 07:31:06;;;;;;;;;;;;;;;4.40;57.81;97753.34;6215439;23;19914;-59
2023/03/12 07:33:31;;;;;;;;;;;;;;;4.37;57.75;97748.28;6163596;23;19908;-59
2023/03/12 07:35:57;;;;;;;;;;;;;;;4.35;57.97;97750.97;6215038;23;20409;-60
2023/03/12 07:38:22;;;;;;;;;;;;;;;4.29;58.60;97751.28;6216106;23;19987;-61
2023/03/12 07:40:51;;;;;;;;;;;;;;;4.28;58.44;97744.41;6215863;23;19916;-60
2023/03/12 07:43:16;;;;;;;;;;;;;;;4.22;58.02;97755.09;6189141;23;19954;-59
2023/03/12 07:45:41;;;;;;;;;;;;;;;4.19;57.95;97750.06;6214112;23;19908;-61
2023/03/12 07:48:06;;;;;;;;;;;;;;;4.20;58.58;97751.78;6215942;23;19974;-61
2023/03/12 07:50:32;;;;;;;;;;;;;;;4.18;58.62;97748.41;6187851;23;19908;-60
2023/03/12 07:52:57;;;;;;;;;;;;;;;4.15;58.60;97746.78;6215124;23;19914;-58
2023/03/12 07:55:23;;;;;;;;;;;;;;;4.11;58.79;97752.22;6215631;23;20004;-61
2023/03/12 07:57:48;;;;;;;;;;;;;;;4.09;58.89;97754.88;6215612;23;19919;-59
2023/03/12 08:00:14;;;;;;;;;;;;;;;4.08;58.93;97753.19;6215187;23;20368;-61
2023/03/12 08:02:39;;;;;;;;;;;;;;;4.11;58.45;97760.84;6215324;23;20366;-59
2023/03/12 08:05:04;;;;;;;;;;;;;;;4.16;59.07;97750.22;6215683;23;19931;-60
2023/03/12 08:07:31;;;;;;;;;;;;;;;4.26;59.07;97756.63;6215523;23;19915;-60
2023/03/12 08:09:59;;;;;;;;;;;;;;;4.44;58.65;97755.72;6215442;23;20327;-59
2023/03/12 08:12:24;;;;;;;;;;;;;;;4.64;57.85;97746.88;6215430;23;19908;-59
2023/03/12 08:14:50;;;;;;;;;;;;;;;4.82;57.19;97755.50;6215375;23;19927;-60
2023/03/12 08:17:15;;;;;;;;;;;;;;;4.93;56.61;97753.16;6215352;23;19916;-60
2023/03/12 08:19:41;;;;;;;;;;;;;;;5.00;56.47;97751.91;6214916;23;19915;-59
2023/03/12 08:22:06;;;;;;;;;;;;;;;5.07;56.16;97751.59;6214957;23;19915;-60
2023/03/12 08:24:31;;;;;;;;;;;;;;;5.12;56.35;97754.78;6214310;23;19911;-60
2023/03/12 08:26:57;;;;;;;;;;;;;;;5.13;55.70;97756.47;6214771;23;19998;-61
2023/03/12 08:29:22;;;;;;;;;;;;;;;5.18;55.90;97757.06;6215437;23;19908;-60
2023/03/12 08:31:47;;;;;;;;;;;;;;;5.23;55.89;97755.88;6215383;23;19908;-61
2023/03/12 08:34:12;;;;;;;;;;;;;;;5.31;56.24;97763.28;6215045;23;19912;-61
2023/03/12 08:36:37;;;;;;;;;;;;;;;5.40;55.98;97757.56;6215338;23;19912;-60
2023/03/12 08:39:03;;;;;;;;;;;;;;;5.52;56.49;97760.41;6214908;23;19908;-60
2023/03/12 08:41:29;;;;;;;;;;;;;;;5.60;56.13;97758.22;6215158;23;20046;-60
2023/03/12 08:43:54;;;;;;;;;;;;;;;5.66;56.62;97761.31;6214902;23;19908;-60
2023/03/12 08:46:19;;;;;;;;;;;;;;;5.72;56.42;97758.38;6215275;23;20328;-61
2023/03/12 08:48:44;;;;;;;;;;;;;;;5.74;55.92;97755.69;6215263;23;20362;-60
2023/03/12 08:51:10;;;;;;;;;;;;;;;5.73;54.90;97761.81;6215167;23;20328;-60
2023/03/12 08:53:35;;;;;;;;;;;;;;;5.75;55.10;97753.91;6215184;23;20283;-60
2023/03/12 08:56:00;;;;;;;;;;;;;;;5.80;55.60;97750.13;6214812;23;19934;-60
2023/03/12 08:58:26;;;;;;;;;;;;;;;5.86;54.97;97754.16;6188637;23;19957;-61
2023/03/12 09:00:51;;;;;;;;;;;;;;;5.92;54.63;97753.81;6215215;23;19934;-61
2023/03/12 09:03:16;;;;;;;;;;;;;;;6.00;54.48;97745.59;6214837;23;19987;-60
2023/03/12 09:05:41;;;;;;;;;;;;;;;6.10;54.42;97746.75;6215191;23;19908;-60
2023/03/12 09:08:07;;;;;;;;;;;;;;;6.21;54.49;97746.13;6188399;23;20251;-58
2023/03/12 09:10:32;;;;;;;;;;;;;;;6.26;54.59;97739.72;6214865;23;20258;-60
2023/03/12 09:12:57;;;;;;;;;;;;;;;6.35;54.48;97752.19;6188100;23;19966;-60
2023/03/12 09:15:23;;;;;;;;;;;;;;;6.51;53.91;97746.09;6188244;23;19912;-60
2023/03/12 09:17:49;;;;;;;;;;;;;;;6.70;53.84;97741.44;6214133;23;20407;-60
2023/03/12 09:20:14;;;;;;;;;;;;;;;6.89;53.42;97734.19;6214087;23;19935;-61
2023/03/12 09:22:40;;;;;;;;;;;;;;;7.08;53.43;97725.22;6214043;23;19915;-60
2023/03/12 09:25:05;;;;;;;;;;;;;;;7.20;52.71;97711.44;6214757;23;19908;-61
2023/03/12 09:27:34;;;;;;;;;;;;;;;7.33;52.60;97717.56;6214872;23;19915;-60
2023/03/12 09:29:59;;;;;;;;;;;;;;;7.37;51.06;97718.22;6188039;23;19912;-60
2023/03/12 09:32:26;;;;;;;;;;;;;;;7.58;52.14;97727.28;6213462;23;19915;-59
2023/03/12 09:34:51;;;;;;;;;;;;;;;7.78;51.58;97725.16;6214328;23;19919;-60
2023/03/12 09:37:17;;;;;;;;;;;;;;;7.87;50.62;97723.72;6214060;23;19908;-61
2023/03/12 09:39:42;;;;;;;;;;;;;;;7.86;50.23;97730.72;6213760;23;20340;-61
2023/03/12 09:42:10;;;;;;;;;;;;;;;7.76;49.35;97737.47;6214258;23;19908;-61
2023/03/12 09:44:44;;;;;;;;;;;;;;;7.59;48.57;97725.50;6187994;23;19966;-60
2023/03/12 09:47:21;;;;;;;;;;;;;;;7.76;50.36;97730.47;6187828;23;20358;-59
2023/03/12 09:49:48;;;;;;;;;;;;;;;7.85;50.02;97731.66;6213906;23;20337;-60
2023/03/12 09:52:32;;;;;;;;;;;;;;;7.80;49.15;97729.31;6187442;23;19956;-60
2023/03/12 09:55:00;;;;;;;;;;;;;;;7.77;50.13;97729.53;6213627;23;19912;-61
2023/03/12 09:57:25;;;;;;;;;;;;;;;10.22;57.77;97738.66;6187187;23;19979;-61
2023/03/12 09:59:51;;;;;;;;;;;;;;;10.13;46.94;97726.25;6214713;23;20348;-61
2023/03/12 10:02:35;;;;;;;;;;;;;;;9.35;46.79;97723.22;6162418;23;20328;-61
2023/03/12 10:05:20;;;;;;;;;;;;;;;9.06;47.70;97720.06;6214157;23;19908;-61
2023/03/12 10:07:56;;;;;;;;;;;;;;;8.55;49.26;97720.94;6193446;23;20323;-61
2023/03/12 10:10:27;;;;;;;;;;;;;;;8.10;50.13;97720.44;6188079;23;20388;-61
2023/03/12 10:12:52;;;;;;;;;;;;;;;8.05;50.64;97718.13;6187472;23;19919;-61
2023/03/12 10:15:17;;;;;;;;;;;;;;;8.09;51.61;97721.38;6213451;23;20097;-60
2023/03/12 10:17:46;;;;;;;;;;;;;;;8.05;51.05;97717.28;6214378;23;20290;-60
2023/03/12 10:20:23;;;;;;;;;;;;;;;8.09;51.48;97722.22;6214486;23;19908;-61
2023/03/12 10:23:03;;;;;;;;;;;;;;;7.94;52.13;97719.75;6213938;23;19915;-60
2023/03/12 10:25:35;;;;;;;;;;;;;;;7.81;52.81;97710.13;6214354;23;19922;-61
2023/03/12 10:28:14;;;;;;;;;;;;;;;7.80;53.82;97703.22;6187740;23;19922;-61
2023/03/12 10:30:40;;;;;;;;;;;;;;;7.84;53.80;97703.84;6187305;23;19931;-61
2023/03/12 10:33:05;;;;;;;;;;;;;;;7.88;54.88;97700.13;6187409;23;19908;-61
2023/03/12 10:35:30;;;;;;;;;;;;;;;7.83;54.38;97700.41;6186814;23;19912;-62
2023/03/12 10:37:56;;;;;;;;;;;;;;;7.91;54.58;97699.91;6213925;23;19935;-61
2023/03/12 10:40:26;;;;;;;;;;;;;;;7.81;55.24;97710.13;6187672;23;19969;-61
2023/03/12 10:42:51;;;;;;;;;;;;;;;7.54;56.77;97711.91;6213910;23;19915;-60
2023/03/12 10:45:19;;;;;;;;;;;;;;;7.42;56.35;97717.91;6213377;23;19908;-61
2023/03/12 10:47:47;;;;;;;;;;;;;;;7.46;56.33;97724.59;6213942;23;19912;-61
2023/03/12 10:50:12;;;;;;;;;;;;;;;7.31;56.93;97716.81;6187619;23;19912;-59
2023/03/12 10:52:37;;;;;;;;;;;;;;;7.34;57.46;97715.78;6212740;23;19962;-60
2023/03/12 10:55:09;;;;;;;;;;;;;;;7.24;58.50;97712.91;6213250;23;19912;-61
2023/03/12 10:57:37;;;;;;;;;;;;;;;7.24;58.71;97715.53;6213498;23;20255;-60
2023/03/12 11:00:05;;;;;;;;;;;;;;;7.27;58.29;97710.13;6186979;23;20038;-59
2023/03/12 11:02:32;;;;;;;;;;;;;;;7.24;58.52;97719.91;6188693;23;19932;-60
2023/03/12 11:04:57;;;;;;;;;;;;;;;7.22;58.47;97713.94;6217190;23;19915;-61
2023/03/12 11:07:32;;;;;;;;;;;;;;;7.29;58.59;97712.63;6217397;23;19939;-61
2023/03/12 11:10:06;;;;;;;;;;;;;;;7.14;60.33;97714.44;6191015;23;19908;-61
2023/03/12 11:12:33;;;;;;;;;;;;;;;7.27;59.31;97712.72;6216753;23;19907;-60
2023/03/12 11:14:59;;;;;;;;;;;;;;;7.42;59.30;97710.91;6216948;23;20335;-60
2023/03/12 11:17:25;;;;;;;;;;;;;;;7.49;59.20;97708.75;6190605;23;19961;-61
2023/03/12 11:19:50;;;;;;;;;;;;;;;7.50;59.98;97711.28;6191252;23;19908;-60
2023/03/12 11:22:25;;;;;;;;;;;;;;;7.54;59.38;97715.38;6217189;23;19916;-61
2023/03/12 11:24:54;;;;;;;;;;;;;;;7.53;59.16;97718.06;6217102;23;19958;-58
2023/03/12 11:27:24;;;;;;;;;;;;;;;7.52;59.18;97719.00;6190420;23;19966;-62
2023/03/12 11:29:49;;;;;;;;;;;;;;;7.44;59.56;97719.50;6190905;23;19916;-61
2023/03/12 11:32:18;;;;;;;;;;;;;;;7.40;60.13;97711.94;6217396;23;19915;-61
2023/03/12 11:34:48;;;;;;;;;;;;;;;7.31;60.92;97706.38;6190721;23;19935;-61
2023/03/12 11:37:32;;;;;;;;;;;;;;;7.18;60.74;97710.69;6216843;23;19908;-61
2023/03/12 11:40:05;;;;;;;;;;;;;;;7.05;61.77;97725.41;6217245;23;19958;-59
2023/03/12 11:42:35;;;;;;;;;;;;;;;6.96;62.02;97711.19;6191238;23;19955;-60
2023/03/12 11:45:14;;;;;;;;;;;;;;;6.93;62.60;97715.75;6189986;23;19908;-60
2023/03/12 11:48:02;;;;;;;;;;;;;;;6.88;62.48;97714.28;6189603;23;19992;-60
2023/03/12 11:50:46;;;;;;;;;;;;;;;6.84;62.59;97725.81;6189098;23;19908;-61
2023/03/12 11:53:20;;;;;;;;;;;;;;;6.83;62.54;97716.31;6190461;23;20336;-61
2023/03/12 11:56:04;;;;;;;;;;;;;;;6.82;63.37;97713.81;6214451;23;19912;-60
2023/03/12 11:58:29;;;;;;;;;;;;;;;6.81;63.58;97704.31;6215756;23;19912;-62
2023/03/12 12:00:57;;;;;;;;;;;;;;;6.90;63.68;97699.38;6188515;23;20336;-58
2023/03/12 12:03:29;;;;;;;;;;;;;;;6.97;62.72;97701.59;6187749;23;19927;-60
2023/03/12 12:06:15;;;;;;;;;;;;;;;7.08;62.31;97700.00;6214969;23;19916;-60
2023/03/12 12:08:46;;;;;;;;;;;;;;;7.16;62.44;97702.13;6215608;23;19931;-60
2023/03/12 12:11:11;;;;;;;;;;;;;;;7.22;63.80;97695.69;6216696;23;19907;-61
2023/03/12 12:13:55;;;;;;;;;;;;;;;7.26;65.58;97698.03;6214774;23;20350;-60
2023/03/12 12:16:36;;;;;;;;;;;;;;;7.40;65.92;97693.69;6214518;23;19915;-59
2023/03/12 12:19:04;;;;;;;;;;;;;;;7.24;66.67;97694.66;6214447;23;20317;-59
2023/03/12 12:21:34;;;;;;;;;;;;;;;7.16;67.01;97694.31;6214585;23;19919;-59
2023/03/12 12:24:25;;;;;;;;;;;;;;;7.11;68.34;97688.53;6188016;23;19916;-59
2023/03/12 12:26:50;;;;;;;;;;;;;;;7.05;69.28;97675.88;6207895;23;20247;-58
2023/03/12 12:29:15;;;;;;;;;;;;;;;7.05;69.88;97687.13;6215156;23;19951;-59
2023/03/12 12:31:47;;;;;;;;;;;;;;;6.94;70.16;97675.72;6213728;23;19958;-61
2023/03/12 12:34:15;;;;;;;;;;;;;;;6.93;71.05;97668.84;6214126;23;19935;-60
2023/03/12 12:36:40;;;;;;;;;;;;;;;7.00;70.41;97667.53;6214612;23;19912;-60
2023/03/12 12:39:16;;;;;;;;;;;;;;;6.99;70.98;97668.47;6215321;23;19951;-60
2023/03/12 12:41:43;;;;;;;;;;;;;;;7.00;70.83;97668.34;6215248;23;19908;-61
2023/03/12 12:44:18;;;;;;;;;;;;;;;7.02;71.97;97666.50;6188562;23;19939;-61
2023/03/12 12:46:46;;;;;;;;;;;;;;;7.01;72.09;97671.78;6187843;23;19908;-61
2023/03/12 12:49:12;;;;;;;;;;;;;;;6.98;71.79;97664.16;6188488;23;20267;-60
2023/03/12 12:51:48;;;;;;;;;;;;;;;6.89;72.02;97653.38;6188332;23;19908;-60
2023/03/12 12:54:25;;;;;;;;;;;;;;;7.00;72.45;97654.47;6214753;23;19912;-60
2023/03/12 12:57:04;;;;;;;;;;;;;;;6.93;72.89;97666.22;6213289;23;19908;-60
2023/03/12 12:59:37;;;;;;;;;;;;;;;6.89;73.03;97658.59;6188475;23;19944;-59
2023/03/12 13:02:03;;;;;;;;;;;;;;;6.90;73.42;97657.66;6188448;23;19918;-60
2023/03/12 13:04:32;;;;;;;;;;;;;;;6.86;73.49;97658.78;6212693;23;19908;-60
2023/03/12 13:07:12;;;;;;;;;;;;;;;6.81;74.36;97658.25;6188442;23;19908;-61
2023/03/12 13:09:44;;;;;;;;;;;;;;;6.84;74.12;97655.44;6214836;23;20484;-61
2023/03/12 13:12:11;;;;;;;;;;;;;;;6.74;74.48;97654.31;6214105;23;19912;-61
2023/03/12 13:14:40;;;;;;;;;;;;;;;6.75;75.63;97639.53;6188423;23;19916;-61
2023/03/12 13:17:06;;;;;;;;;;;;;;;6.67;75.40;97655.63;6214841;23;20327;-60
2023/03/12 13:19:31;;;;;;;;;;;;;;;6.63;75.53;97659.34;6188131;23;20358;-60
2023/03/12 13:22:06;;;;;;;;;;;;;;;6.64;75.66;97655.81;6186919;23;19908;-60
2023/03/12 13:24:50;;;;;;;;;;;;;;;6.66;75.64;97646.97;6187981;23;19907;-61
2023/03/12 13:27:18;;;;;;;;;;;;;;;6.66;76.66;97640.94;6188754;23;19911;-59
2023/03/12 13:29:44;;;;;;;;;;;;;;;6.66;76.98;97644.38;6214844;23;19955;-60
2023/03/12 13:32:28;;;;;;;;;;;;;;;6.73;77.58;97641.41;6214876;23;20295;-61
2023/03/12 13:34:54;;;;;;;;;;;;;;;6.81;77.71;97645.22;6214649;23;19912;-61
2023/03/12 13:37:26;;;;;;;;;;;;;;;6.79;77.85;97641.84;6214366;23;19943;-61
2023/03/12 13:39:51;;;;;;;;;;;;;;;6.76;78.80;97647.25;6188348;23;19930;-60
2023/03/12 13:42:22;;;;;;;;;;;;;;;6.70;78.21;97647.63;6214797;23;19939;-61
2023/03/12 13:44:48;;;;;;;;;;;;;;;6.67;78.52;97655.63;6214676;23;19908;-61
2023/03/12 13:47:21;;;;;;;;;;;;;;;6.62;78.89;97655.09;6188244;23;19908;-61
2023/03/12 13:49:57;;;;;;;;;;;;;;;6.60;79.83;97656.94;6189139;23;19915;-59
2023/03/12 13:52:22;;;;;;;;;;;;;;;6.69;80.20;97655.56;6214371;23;19986;-60
2023/03/12 13:54:49;;;;;;;;;;;;;;;6.74;80.51;97656.91;6213697;23;19950;-61
2023/03/12 13:57:22;;;;;;;;;;;;;;;6.78;80.66;97649.75;6214673;23;20103;-61
2023/03/12 13:59:47;;;;;;;;;;;;;;;6.85;80.59;97649.31;6188011;23;19915;-61
2023/03/12 14:02:15;;;;;;;;;;;;;;;6.89;80.63;97649.94;6188069;23;19912;-61
2023/03/12 14:04:40;;;;;;;;;;;;;;;6.89;80.22;97656.00;6187734;23;19908;-61
2023/03/12 14:07:24;;;;;;;;;;;;;;;6.95;80.88;97656.53;6214785;23;19958;-61
2023/03/12 14:09:49;;;;;;;;;;;;;;;7.04;81.03;97655.97;6213603;23;20442;-60
2023/03/12 14:12:16;;;;;;;;;;;;;;;7.12;80.86;97648.47;6187995;23;19947;-60
2023/03/12 14:15:00;;;;;;;;;;;;;;;7.23;80.82;97656.47;6187800;23;19951;-60
2023/03/12 14:17:26;;;;;;;;;;;;;;;7.33;80.62;97660.16;6187770;23;19947;-60
2023/03/12 14:20:15;;;;;;;;;;;;;;;7.37;80.33;97646.00;6186931;23;20355;-60
2023/03/12 14:22:40;;;;;;;;;;;;;;;7.46;80.19;97651.53;6198063;23;19911;-60
2023/03/12 14:25:11;;;;;;;;;;;;;;;7.56;80.52;97643.00;6186924;23;20392;-61
2023/03/12 14:27:36;;;;;;;;;;;;;;;7.88;79.42;97641.81;6188038;23;19908;-61
2023/03/12 14:30:01;;;;;;;;;;;;;;;8.13;77.87;97636.66;6214539;23;19973;-61
2023/03/12 14:32:27;;;;;;;;;;;;;;;8.15;77.82;97636.53;6214240;23;19908;-60
2023/03/12 14:34:55;;;;;;;;;;;;;;;8.23;77.89;97632.47;6186462;23;20402;-60
2023/03/12 14:37:28;;;;;;;;;;;;;;;8.44;77.55;97629.38;6185756;23;19908;-60
2023/03/12 14:39:54;;;;;;;;;;;;;;;8.64;76.52;97631.44;6187452;23;19935;-61
2023/03/12 14:42:20;;;;;;;;;;;;;;;8.63;76.86;97628.91;6211552;23;19919;-60
2023/03/12 14:44:52;;;;;;;;;;;;;;;8.65;77.00;97629.66;6213547;23;19991;-60
2023/03/12 14:47:17;;;;;;;;;;;;;;;8.73;76.71;97640.41;6186595;23;20281;-60
2023/03/12 14:49:43;;;;;;;;;;;;;;;8.95;75.55;97632.72;6214383;23;19931;-60
2023/03/12 14:52:12;;;;;;;;;;;;;;;9.14;75.16;97631.41;6214387;23;19908;-61
2023/03/12 14:54:38;;;;;;;;;;;;;;;9.08;74.98;97640.50;6186610;23;20550;-62
2023/03/12 14:57:03;;;;;;;;;;;;;;;9.06;75.84;97641.59;6211923;23;19938;-61
2023/03/12 14:59:32;;;;;;;;;;;;;;;9.00;75.74;97648.91;6213960;23;19920;-61
2023/03/12 15:02:03;;;;;;;;;;;;;;;9.00;75.93;97635.84;6213546;23;20271;-60
2023/03/12 15:04:28;;;;;;;;;;;;;;;8.96;75.44;97647.47;6213046;23;19907;-60
2023/03/12 15:06:58;;;;;;;;;;;;;;;8.93;76.02;97649.47;6187460;23;20034;-60
2023/03/12 15:09:27;;;;;;;;;;;;;;;8.90;75.79;97645.28;6187429;23;19943;-60
2023/03/12 15:11:56;;;;;;;;;;;;;;;8.82;75.75;97644.16;6213911;23;19979;-59
2023/03/12 15:14:21;;;;;;;;;;;;;;;8.78;76.29;97639.13;6186352;23;20251;-60
2023/03/12 15:16:46;;;;;;;;;;;;;;;8.79;76.80;97635.56;6213661;23;20336;-60
2023/03/12 15:19:12;;;;;;;;;;;;;;;8.86;76.52;97645.59;6213759;23;20346;-61
2023/03/12 15:21:37;;;;;;;;;;;;;;;8.90;76.18;97642.66;6187601;23;19912;-60
2023/03/12 15:24:02;;;;;;;;;;;;;;;9.04;75.69;97650.34;6212494;23;19912;-60
2023/03/12 15:26:28;;;;;;;;;;;;;;;9.13;75.22;97638.41;6213923;23;19908;-61
2023/03/12 15:28:57;;;;;;;;;;;;;;;9.19;74.92;97632.75;6186189;23;19908;-60
2023/03/12 15:31:23;;;;;;;;;;;;;;;9.19;74.91;97637.97;6213856;23;19946;-60
2023/03/12 15:34:03;;;;;;;;;;;;;;;9.11;74.98;97632.44;6213721;23;19908;-60
2023/03/12 15:36:29;;;;;;;;;;;;;;;9.10;74.72;97627.34;6213674;23;19934;-61
2023/03/12 15:38:55;;;;;;;;;;;;;;;9.05;75.00;97625.06;6213353;23;20328;-61
2023/03/12 15:41:22;;;;;;;;;;;;;;;9.00;75.30;97624.53;6187043;23;20379;-60
2023/03/12 15:43:49;;;;;;;;;;;;;;;8.91;74.92;97618.19;6213467;23;19912;-60
2023/03/12 15:46:15;;;;;;;;;;;;;;;8.94;75.05;97617.13;6186442;23;20040;-60
2023/03/12 15:48:40;;;;;;;;;;;;;;;8.99;75.04;97609.78;6188036;23;19943;-61
2023/03/12 15:51:12;;;;;;;;;;;;;;;9.09;74.79;97600.34;6189040;23;20359;-60
2023/03/12 15:53:37;;;;;;;;;;;;;;;9.20;74.52;97610.03;6215539;23;20001;-58
2023/03/12 15:56:04;;;;;;;;;;;;;;;9.35;73.60;97606.28;6189157;23;20291;-60
2023/03/12 15:58:30;;;;;;;;;;;;;;;9.49;72.93;97598.25;6215971;23;19908;-61
2023/03/12 16:01:11;;;;;;;;;;;;;;;9.61;73.45;97607.00;6214015;23;19987;-60
2023/03/12 16:03:37;;;;;;;;;;;;;;;9.74;72.26;97607.75;6188708;23;19907;-61
2023/03/12 16:06:03;;;;;;;;;;;;;;;9.74;72.31;97612.16;6215017;23;19934;-60
2023/03/12 16:08:35;;;;;;;;;;;;;;;9.60;72.83;97614.94;6215544;23;20325;-59
2023/03/12 16:11:00;;;;;;;;;;;;;;;9.51;72.55;97621.72;6188161;23;19912;-60
2023/03/12 16:13:27;;;;;;;;;;;;;;;9.44;72.95;97630.97;6188716;23;19908;-61
2023/03/12 16:15:52;;;;;;;;;;;;;;;9.37;73.08;97632.38;6188953;23;20260;-60
2023/03/12 16:18:18;;;;;;;;;;;;;;;9.27;73.62;97638.25;6215508;23;20324;-61
2023/03/12 16:20:43;;;;;;;;;;;;;;;9.10;73.99;97638.63;6214498;23;19990;-61
2023/03/12 16:23:08;;;;;;;;;;;;;;;9.11;74.18;97648.16;6188502;23;19912;-60
2023/03/12 16:25:34;;;;;;;;;;;;;;;9.07;74.47;97638.84;6187606;23;20243;-61
2023/03/12 16:27:59;;;;;;;;;;;;;;;8.96;75.45;97641.41;6215013;23;19916;-62
2023/03/12 16:30:29;;;;;;;;;;;;;;;8.97;75.29;97654.34;6215393;23;20034;-61
2023/03/12 16:32:54;;;;;;;;;;;;;;;8.96;74.84;97657.09;6188266;23;19908;-61
2023/03/12 16:35:19;;;;;;;;;;;;;;;8.94;74.99;97648.50;6215016;23;20274;-61
2023/03/12 16:37:45;;;;;;;;;;;;;;;8.95;75.17;97652.81;6215276;23;19912;-61
2023/03/12 16:40:10;;;;;;;;;;;;;;;8.88;75.49;97644.56;6215373;23;19911;-61
2023/03/12 16:42:36;;;;;;;;;;;;;;;8.83;75.62;97638.81;6214947;23;19947;-61
2023/03/12 16:45:01;;;;;;;;;;;;;;;8.83;75.62;97640.59;6188371;23;19908;-60
2023/03/12 16:47:26;;;;;;;;;;;;;;;8.80;75.92;97647.69;6215257;23;20225;-61
2023/03/12 16:49:51;;;;;;;;;;;;;;;8.78;75.71;97648.78;6188083;23;20358;-61
2023/03/12 16:52:17;;;;;;;;;;;;;;;8.72;76.27;97660.47;6215078;23;19908;-61
2023/03/12 16:54:42;;;;;;;;;;;;;;;8.70;76.12;97658.91;6215005;23;19928;-60
2023/03/12 16:57:10;;;;;;;;;;;;;;;8.68;76.72;97656.41;6214708;23;19974;-62
2023/03/12 16:59:36;;;;;;;;;;;;;;;8.64;76.53;97654.13;6188331;23;19908;-61
2023/03/12 17:02:02;;;;;;;;;;;;;;;8.58;76.87;97649.31;6188816;23;20255;-60
2023/03/12 17:04:27;;;;;;;;;;;;;;;8.52;77.07;97647.94;6188764;23;20362;-61
2023/03/12 17:06:52;;;;;;;;;;;;;;;8.48;77.60;97646.50;6215379;23;20298;-60
2023/03/12 17:09:18;;;;;;;;;;;;;;;8.46;78.12;97643.16;6215053;23;20347;-61
2023/03/12 17:11:43;;;;;;;;;;;;;;;8.42;78.42;97650.34;6214723;23;20245;-61
2023/03/12 17:14:15;;;;;;;;;;;;;;;8.38;78.73;97650.69;6188283;23;20005;-60
2023/03/12 17:16:41;;;;;;;;;;;;;;;8.35;79.13;97645.63;6187727;23;20418;-61
2023/03/12 17:19:06;;;;;;;;;;;;;;;8.30;79.20;97645.97;6215122;23;19995;-61
2023/03/12 17:21:31;;;;;;;;;;;;;;;8.26;79.12;97653.16;6215137;23;19947;-61
2023/03/12 17:23:56;;;;;;;;;;;;;;;8.20;79.80;97648.34;6214444;23;19907;-60
2023/03/12 17:26:22;;;;;;;;;;;;;;;8.18;79.52;97645.00;6213390;23;19915;-60
2023/03/12 17:28:47;;;;;;;;;;;;;;;8.15;80.08;97650.44;6214984;23;19908;-60
2023/03/12 17:31:12;;;;;;;;;;;;;;;8.13;80.03;97647.09;6214525;23;20266;-60
2023/03/12 17:33:37;;;;;;;;;;;;;;;8.11;80.28;97642.91;6215046;23;19908;-61
2023/03/12 17:36:06;;;;;;;;;;;;;;;8.09;80.35;97651.69;6214839;23;20408;-60
2023/03/12 17:38:31;;;;;;;;;;;;;;;8.07;80.83;97647.50;6188318;23;19954;-61
2023/03/12 17:40:57;;;;;;;;;;;;;;;8.06;80.64;97659.72;6213823;23;19908;-61
2023/03/12 17:43:23;;;;;;;;;;;;;;;8.04;80.55;97658.16;6214499;23;19915;-61
2023/03/12 17:45:48;;;;;;;;;;;;;;;8.03;81.02;97667.78;6214848;23;19987;-61
2023/03/12 17:48:13;;;;;;;;;;;;;;;8.01;81.06;97668.81;6214750;23;19946;-61
2023/03/12 17:50:38;;;;;;;;;;;;;;;7.99;81.25;97666.31;6214299;23;19962;-59
2023/03/12 17:53:04;;;;;;;;;;;;;;;7.98;81.24;97663.78;6214416;23;19908;-61
2023/03/12 17:55:29;;;;;;;;;;;;;;;7.96;81.11;97666.50;6214617;23;20356;-61
2023/03/12 17:57:55;;;;;;;;;;;;;;;7.93;81.82;97669.31;6214001;23;20423;-61
2023/03/12 18:00:21;;;;;;;;;;;;;;;7.91;81.44;97667.75;6213275;23;20267;-62
2023/03/12 18:02:47;;;;;;;;;;;;;;;7.89;81.92;97664.41;6187278;23;19908;-62
2023/03/12 18:05:12;;;;;;;;;;;;;;;7.88;81.60;97678.38;6214136;23;19947;-62
2023/03/12 18:07:37;;;;;;;;;;;;;;;7.85;81.77;97669.84;6213986;23;19907;-62
2023/03/12 18:10:03;;;;;;;;;;;;;;;7.84;82.11;97672.53;6214427;23;20331;-63
2023/03/12 18:12:28;;;;;;;;;;;;;;;7.82;82.63;97677.03;6212351;23;19930;-61
2023/03/12 18:14:53;;;;;;;;;;;;;;;7.82;82.47;97664.81;6213818;23;20324;-62
2023/03/12 18:17:18;;;;;;;;;;;;;;;7.78;82.32;97663.34;6213948;23;20443;-62
2023/03/12 18:19:43;;;;;;;;;;;;;;;7.78;82.97;97678.19;6213929;23;20451;-62
2023/03/12 18:22:12;;;;;;;;;;;;;;;7.77;82.48;97681.69;6213866;23;19995;-62
2023/03/12 18:24:38;;;;;;;;;;;;;;;7.76;82.71;97686.09;6212661;23;19979;-61
2023/03/12 18:27:03;;;;;;;;;;;;;;;7.74;82.73;97690.59;6213421;23;19940;-62
2023/03/12 18:29:28;;;;;;;;;;;;;;;7.73;82.43;97686.28;6214259;23;19908;-60
2023/03/12 18:31:53;;;;;;;;;;;;;;;7.75;82.64;97696.66;6214362;23;19915;-62
2023/03/12 18:34:19;;;;;;;;;;;;;;;7.74;82.63;97698.44;6213764;23;20328;-62
2023/03/12 18:36:44;;;;;;;;;;;;;;;7.75;82.57;97701.88;6213858;23;19908;-62
2023/03/12 18:39:10;;;;;;;;;;;;;;;7.80;81.53;97697.16;6213849;23;19965;-62
2023/03/12 18:41:35;;;;;;;;;;;;;;;7.79;81.82;97692.91;6213364;23;19907;-61
2023/03/12 18:44:00;;;;;;;;;;;;;;;7.78;82.20;97689.44;6213763;23;19935;-61
2023/03/12 18:46:26;;;;;;;;;;;;;;;7.77;81.54;97692.97;6213352;23;19908;-62
2023/03/12 18:48:52;;;;;;;;;;;;;;;7.77;81.39;97698.19;6187907;23;19983;-62
2023/03/12 18:51:17;;;;;;;;;;;;;;;7.76;81.23;97701.75;6214097;23;20316;-62
2023/03/12 18:53:44;;;;;;;;;;;;;;;7.78;81.80;97702.50;6187157;23;19915;-62
2023/03/12 18:56:10;;;;;;;;;;;;;;;7.78;81.25;97702.50;6212408;23;19986;-62
2023/03/12 18:58:35;;;;;;;;;;;;;;;7.83;80.65;97705.63;6213743;23;19907;-62
2023/03/12 19:01:00;;;;;;;;;;;;;;;7.89;79.98;97700.97;6213974;23;20247;-62
2023/03/12 19:03:26;;;;;;;;;;;;;;;7.89;79.97;97700.97;6213835;23;19912;-62
2023/03/12 19:06:01;;;;;;;;;;;;;;;7.91;79.66;97704.28;6213602;23;19908;-62
2023/03/12 19:08:27;;;;;;;;;;;;;;;7.91;80.08;97701.69;6187036;23;19935;-62
2023/03/12 19:10:52;;;;;;;;;;;;;;;7.93;79.38;97702.44;6186977;23;20247;-62
2023/03/12 19:13:18;;;;;;;;;;;;;;;7.92;79.24;97701.59;6213596;23;19931;-62
2023/03/12 19:15:43;;;;;;;;;;;;;;;8.39;85.43;97702.00;6213327;23;20001;-61
2023/03/12 19:18:09;;;;;;;;;;;;;;;8.45;79.51;97704.19;6211496;23;19908;-62
2023/03/12 19:20:35;;;;;;;;;;;;;;;8.39;78.38;97705.44;6212056;23;19954;-62
2023/03/12 19:23:00;;;;;;;;;;;;;;;8.32;77.69;97704.16;6211600;23;19998;-61
2023/03/12 19:25:25;;;;;;;;;;;;;;;8.26;77.65;97708.03;6215175;23;20352;-62
2023/03/12 19:27:51;;;;;;;;;;;;;;;8.18;78.43;97702.47;6215795;23;19936;-62
2023/03/12 19:30:16;;;;;;;;;;;;;;;8.11;78.53;97706.44;6214896;23;19916;-62
2023/03/12 19:32:41;;;;;;;;;;;;;;;8.09;78.79;97714.38;6214595;23;19907;-62
2023/03/12 19:35:07;;;;;;;;;;;;;;;8.05;78.56;97706.81;6215083;23;19918;-62
2023/03/12 19:37:33;;;;;;;;;;;;;;;8.06;78.55;97708.53;6188419;23;19908;-62
2023/03/12 19:39:58;;;;;;;;;;;;;;;8.07;78.48;97715.41;6215420;23;19908;-62
2023/03/12 19:42:23;;;;;;;;;;;;;;;8.02;78.34;97709.66;6215716;23;19915;-62
2023/03/12 19:44:50;;;;;;;;;;;;;;;7.99;78.95;97710.69;6214875;23;19935;-62
2023/03/12 19:47:16;;;;;;;;;;;;;;;7.94;78.72;97711.94;6214954;23;19998;-62
2023/03/12 19:49:41;;;;;;;;;;;;;;;7.93;78.86;97705.03;6215165;23;20258;-62
2023/03/12 19:52:06;;;;;;;;;;;;;;;7.96;78.75;97697.84;6215527;23;19908;-63
2023/03/12 19:54:31;;;;;;;;;;;;;;;7.92;79.13;97699.00;6214821;23;19991;-62
2023/03/12 19:56:56;;;;;;;;;;;;;;;7.96;78.91;97703.06;6215513;23;19908;-62
2023/03/12 19:59:22;;;;;;;;;;;;;;;8.02;78.39;97700.06;6214693;23;19908;-63
2023/03/12 20:01:47;;;;;;;;;;;;;;;7.92;79.08;97699.00;6215481;23;20256;-63
2023/03/12 20:04:12;;;;;;;;;;;;;;;7.87;79.38;97706.28;6215325;23;19954;-63
2023/03/12 20:06:37;;;;;;;;;;;;;;;7.83;79.37;97713.47;6215097;23;19912;-63
2023/03/12 20:09:04;;;;;;;;;;;;;;;7.83;79.59;97715.25;6214014;23;19912;-61
2023/03/12 20:11:29;;;;;;;;;;;;;;;7.87;79.03;97716.72;6211496;23;20324;-61
2023/03/12 20:13:54;;;;;;;;;;;;;;;7.89;79.12;97717.47;6214210;23;19934;-62
2023/03/12 20:16:20;;;;;;;;;;;;;;;7.88;79.87;97714.94;6211730;23;20306;-62